Time;durP1;ratioP1;P1;durP2;ratioP2;P2;SDS_P1;SDS_P2;PMS_P1;PMS_P2;Temp;Humidity;BMP_temperature;BMP_pressure;BME280_temperature;BME280_humidity;BME280_pressure;Samples;Min_cycle;Max_cycle;Signal;HPM_P1;HPM_P2
2022/06/11 00:01:52;;;;;;;10.43;5.40;;;19.30;99.90;;;;;;4980978;28;20030;-75
2022/06/11 00:04:25;;;;;;;8.57;5.80;;;19.20;99.90;;;;;;4985518;28;20041;-73
2022/06/11 00:06:56;;;;;;;8.95;5.43;;;19.20;99.90;;;;;;4983141;28;20018;-73
2022/06/11 00:09:23;;;;;;;7.60;5.05;;;19.30;99.90;;;;;;4985244;28;20030;-73
2022/06/11 00:11:51;;;;;;;6.25;4.95;;;19.20;99.90;;;;;;4984022;28;20018;-74
2022/06/11 00:14:23;;;;;;;8.90;5.40;;;19.20;99.90;;;;;;4981729;28;20026;-73
2022/06/11 00:16:50;;;;;;;9.57;5.93;;;19.20;99.90;;;;;;4986355;28;20037;-75
2022/06/11 00:19:19;;;;;;;8.52;5.65;;;19.20;99.90;;;;;;4986576;28;20084;-78
2022/06/11 00:21:45;;;;;;;10.27;5.40;;;19.20;99.90;;;;;;4985719;28;20061;-73
2022/06/11 00:24:12;;;;;;;7.80;5.80;;;19.20;99.90;;;;;;4972846;28;20439;-73
2022/06/11 00:26:39;;;;;;;6.72;5.10;;;19.20;99.90;;;;;;4981091;28;20387;-75
2022/06/11 00:29:05;;;;;;;8.43;5.07;;;19.20;99.90;;;;;;4987738;28;20070;-73
2022/06/11 00:31:32;;;;;;;6.38;5.30;;;19.20;99.90;;;;;;4983585;28;20026;-72
2022/06/11 00:33:58;;;;;;;9.70;5.57;;;19.20;99.90;;;;;;4986028;28;20027;-74
2022/06/11 00:36:24;;;;;;;8.35;5.95;;;19.20;99.90;;;;;;4978447;28;20529;-73
2022/06/11 00:38:53;;;;;;;9.55;6.20;;;19.20;99.90;;;;;;4986529;28;20027;-73
2022/06/11 00:41:22;;;;;;;8.20;6.00;;;19.20;99.90;;;;;;4985745;28;20033;-74
2022/06/11 00:43:48;;;;;;;9.95;6.28;;;19.20;99.90;;;;;;4985080;28;20817;-73
2022/06/11 00:46:46;;;;;;;8.52;6.00;;;19.20;99.90;;;;;;4983170;28;20026;-75
2022/06/11 00:49:21;;;;;;;8.15;5.93;;;19.20;99.90;;;;;;4983359;28;20368;-72
2022/06/11 00:51:51;;;;;;;8.07;6.18;;;19.10;99.90;;;;;;4984303;28;20029;-74
2022/06/11 00:54:25;;;;;;;7.72;5.65;;;19.10;99.90;;;;;;4977932;28;20082;-74
2022/06/11 00:56:54;;;;;;;9.13;5.63;;;19.10;99.90;;;;;;4985700;28;20022;-75
2022/06/11 00:59:33;;;;;;;9.60;6.45;;;19.10;99.90;;;;;;4979708;28;20041;-74
2022/06/11 01:01:59;;;;;;;10.13;6.50;;;19.10;99.90;;;;;;4985892;28;20542;-75
2022/06/11 01:04:53;;;;;;;10.65;6.25;;;19.10;99.90;;;;;;4981332;28;20033;-74
2022/06/11 01:07:53;;;;;;;8.45;5.65;;;19.20;99.90;;;;;;4984028;28;20022;-74
2022/06/11 01:10:56;;;;;;;9.55;6.10;;;19.20;99.90;;;;;;4982642;28;20020;-73
2022/06/11 01:13:35;;;;;;;8.10;6.30;;;19.20;99.90;;;;;;4985198;28;21643;-76
2022/06/11 01:16:39;;;;;;;12.60;8.30;;;19.10;99.90;;;;;;4978686;28;20039;-74
2022/06/11 01:19:13;;;;;;;11.00;8.10;;;19.00;99.90;;;;;;4972976;28;20061;-74
2022/06/11 01:22:04;;;;;;;11.75;7.97;;;19.00;99.90;;;;;;4998814;28;20030;-73
2022/06/11 01:24:41;;;;;;;10.05;6.63;;;19.00;99.90;;;;;;4982664;28;20041;-74
2022/06/11 01:27:26;;;;;;;9.32;6.65;;;19.10;99.90;;;;;;4985147;28;20030;-73
2022/06/11 01:30:02;;;;;;;9.45;6.43;;;19.10;99.90;;;;;;4966222;28;20030;-75
2022/06/11 01:32:51;;;;;;;15.35;7.05;;;19.10;99.90;;;;;;4990036;28;20050;-74
2022/06/11 01:35:26;;;;;;;10.85;5.60;;;19.00;99.90;;;;;;4988461;28;20058;-74
2022/06/11 01:38:20;;;;;;;8.23;5.53;;;19.00;99.90;;;;;;4991097;28;20026;-77
2022/06/11 01:41:14;;;;;;;9.75;6.07;;;19.10;99.90;;;;;;4990108;28;20023;-78
2022/06/11 01:43:43;;;;;;;7.07;5.15;;;19.10;99.90;;;;;;4986787;28;20038;-75
2022/06/11 01:46:35;;;;;;;7.00;5.53;;;19.10;99.90;;;;;;4985138;28;20038;-74
2022/06/11 01:49:24;;;;;;;10.20;5.82;;;19.10;99.90;;;;;;4985772;28;20031;-73
2022/06/11 01:52:18;;;;;;;8.00;4.93;;;19.10;99.90;;;;;;4972114;28;20038;-76
2022/06/11 01:55:00;;;;;;;7.65;4.70;;;19.00;99.90;;;;;;4987156;28;20401;-73
2022/06/11 01:57:38;;;;;;;6.63;4.82;;;19.00;99.90;;;;;;4976796;28;20034;-75
2022/06/11 02:00:17;;;;;;;5.65;4.47;;;19.10;99.90;;;;;;4982132;28;20379;-76
2022/06/11 02:03:14;;;;;;;7.40;4.32;;;19.00;99.90;;;;;;4976346;28;20038;-76
2022/06/11 02:06:12;;;;;;;8.15;4.57;;;19.00;99.90;;;;;;4984084;28;20647;-75
2022/06/11 02:09:08;;;;;;;8.43;4.60;;;19.00;99.90;;;;;;4981975;28;20057;-74
2022/06/11 02:11:50;;;;;;;5.57;3.92;;;19.00;99.90;;;;;;4984910;28;20110;-74
2022/06/11 02:14:39;;;;;;;6.45;4.07;;;19.00;99.90;;;;;;4986888;28;20438;-74
2022/06/11 02:17:14;;;;;;;8.95;4.38;;;19.00;99.90;;;;;;4982218;28;20042;-76
2022/06/11 02:19:44;;;;;;;9.18;4.22;;;19.00;99.90;;;;;;4981846;28;20027;-74
2022/06/11 02:22:23;;;;;;;7.50;4.10;;;19.00;99.90;;;;;;4963705;28;20026;-74
2022/06/11 02:24:54;;;;;;;5.85;3.83;;;19.00;99.90;;;;;;4977210;28;20721;-76
2022/06/11 02:27:27;;;;;;;7.40;4.18;;;19.00;99.90;;;;;;4978945;28;20146;-75
2022/06/11 02:29:55;;;;;;;6.35;4.40;;;19.00;99.90;;;;;;4984530;28;20050;-75
2022/06/11 02:32:24;;;;;;;5.93;3.72;;;19.00;99.90;;;;;;4985090;28;20106;-75
2022/06/11 02:34:56;;;;;;;6.20;4.53;;;19.00;99.90;;;;;;4986019;28;20030;-73
2022/06/11 02:37:41;;;;;;;6.35;4.40;;;19.00;99.90;;;;;;4984252;28;20035;-75
2022/06/11 02:40:17;;;;;;;8.15;5.03;;;19.00;99.90;;;;;;4976370;28;20035;-78
2022/06/11 02:42:45;;;;;;;6.63;4.28;;;19.00;99.90;;;;;;4989974;28;20320;-74
2022/06/11 02:45:12;;;;;;;5.47;3.65;;;19.00;99.90;;;;;;4987779;28;20031;-79
2022/06/11 02:47:44;;;;;;;8.57;4.43;;;19.00;99.90;;;;;;4994084;28;20030;-75
2022/06/11 02:50:19;;;;;;;13.18;4.63;;;19.00;99.90;;;;;;4988470;28;20032;-80
2022/06/11 02:52:45;;;;;;;9.52;4.38;;;19.00;99.90;;;;;;4985379;28;20037;-74
2022/06/11 02:55:11;;;;;;;5.80;4.13;;;19.00;99.90;;;;;;4983224;28;20027;-75
2022/06/11 02:57:38;;;;;;;10.00;5.07;;;19.00;99.90;;;;;;4982357;28;20303;-74
2022/06/11 03:00:09;;;;;;;6.95;3.97;;;19.00;99.90;;;;;;4979588;28;20037;-75
2022/06/11 03:02:35;;;;;;;6.68;4.18;;;19.00;99.90;;;;;;4989714;28;20061;-74
2022/06/11 03:05:02;;;;;;;7.57;4.55;;;19.00;99.90;;;;;;4987533;28;20034;-74
2022/06/11 03:07:28;;;;;;;7.07;4.28;;;19.00;99.90;;;;;;4986110;28;20473;-76
2022/06/11 03:09:53;;;;;;;6.40;4.15;;;19.00;99.90;;;;;;4976787;28;20047;-76
2022/06/11 03:12:19;;;;;;;9.05;4.40;;;19.00;99.90;;;;;;4968170;28;20049;-74
2022/06/11 03:14:47;;;;;;;7.93;4.78;;;19.00;99.90;;;;;;4985675;28;20038;-74
2022/06/11 03:17:16;;;;;;;7.95;4.13;;;19.00;99.90;;;;;;4986494;28;20034;-74
2022/06/11 03:19:43;;;;;;;6.30;3.85;;;19.00;99.90;;;;;;4981930;28;20795;-75
2022/06/11 03:22:09;;;;;;;6.47;4.18;;;19.00;99.90;;;;;;4986765;28;20089;-75
2022/06/11 03:24:35;;;;;;;4.55;3.70;;;19.00;99.90;;;;;;4981471;28;20034;-79
2022/06/11 03:27:04;;;;;;;6.63;4.05;;;19.00;99.90;;;;;;4975972;28;20038;-79
2022/06/11 03:29:30;;;;;;;6.97;4.25;;;19.00;99.90;;;;;;4977819;28;20110;-75
2022/06/11 03:31:56;;;;;;;7.95;4.13;;;19.00;99.90;;;;;;4985011;28;20031;-75
2022/06/11 03:34:22;;;;;;;6.35;4.80;;;19.00;99.90;;;;;;4985128;28;20391;-74
2022/06/11 03:36:52;;;;;;;8.35;4.20;;;19.00;99.90;;;;;;4985508;28;20503;-74
2022/06/11 03:39:18;;;;;;;8.00;4.38;;;19.00;99.90;;;;;;4979527;28;20438;-74
2022/06/11 03:41:45;;;;;;;5.80;4.25;;;18.90;99.90;;;;;;4979673;28;20105;-74
2022/06/11 03:44:12;;;;;;;8.68;4.18;;;18.90;99.90;;;;;;4985883;28;20085;-74
2022/06/11 03:46:38;;;;;;;7.47;3.70;;;18.90;99.90;;;;;;4984337;28;20030;-75
2022/06/11 03:49:04;;;;;;;7.18;4.03;;;18.90;99.90;;;;;;4986393;28;20034;-73
2022/06/11 03:51:30;;;;;;;5.50;3.50;;;18.80;99.90;;;;;;4983344;28;20035;-74
2022/06/11 03:53:56;;;;;;;5.20;3.38;;;18.80;99.90;;;;;;4982567;28;20391;-74
2022/06/11 03:56:22;;;;;;;6.85;3.70;;;18.80;99.90;;;;;;4985996;28;20053;-75
2022/06/11 03:58:49;;;;;;;5.38;3.22;;;18.70;99.90;;;;;;4982793;28;20030;-73
2022/06/11 04:01:16;;;;;;;4.05;3.20;;;18.70;99.90;;;;;;4981920;28;21537;-74
2022/06/11 04:03:44;;;;;;;5.82;3.60;;;18.70;99.90;;;;;;4987361;28;20045;-79
2022/06/11 04:06:12;;;;;;;4.18;3.13;;;18.70;99.90;;;;;;4984578;28;20034;-74
2022/06/11 04:08:39;;;;;;;6.38;3.70;;;18.60;99.90;;;;;;4979060;28;20030;-77
2022/06/11 04:11:07;;;;;;;5.63;3.30;;;18.70;99.90;;;;;;4979485;28;20861;-73
2022/06/11 04:13:35;;;;;;;8.57;4.43;;;18.60;99.90;;;;;;4986272;28;20057;-73
2022/06/11 04:16:02;;;;;;;4.93;3.50;;;18.70;99.90;;;;;;4984495;28;20270;-73
2022/06/11 04:18:40;;;;;;;7.90;4.30;;;18.70;99.90;;;;;;4980866;28;20030;-77
2022/06/11 04:21:10;;;;;;;7.20;4.03;;;18.70;99.90;;;;;;4982766;28;20030;-73
2022/06/11 04:23:38;;;;;;;7.63;3.80;;;18.70;99.90;;;;;;4985716;28;20102;-73
2022/06/11 04:26:07;;;;;;;6.40;3.63;;;18.70;99.90;;;;;;4983772;28;20478;-76
2022/06/11 04:28:34;;;;;;;5.63;3.70;;;18.70;99.90;;;;;;4962531;28;20026;-73
2022/06/11 04:31:03;;;;;;;7.63;3.70;;;18.70;99.90;;;;;;4981488;28;20060;-73
2022/06/11 04:33:29;;;;;;;8.13;3.67;;;18.70;99.90;;;;;;4981230;28;20027;-73
2022/06/11 04:35:55;;;;;;;8.38;3.80;;;18.70;99.90;;;;;;4985883;28;20425;-75
2022/06/11 04:38:22;;;;;;;4.57;3.30;;;18.80;99.90;;;;;;4981809;28;20041;-73
2022/06/11 04:40:48;;;;;;;7.22;3.80;;;18.80;99.90;;;;;;4984167;28;20035;-74
2022/06/11 04:43:15;;;;;;;7.28;4.00;;;18.90;99.90;;;;;;4985194;28;20038;-75
2022/06/11 04:45:41;;;;;;;6.97;3.75;;;18.90;99.90;;;;;;4985218;28;20104;-73
2022/06/11 04:48:07;;;;;;;10.23;4.80;;;18.90;99.90;;;;;;4983055;28;20065;-73
2022/06/11 04:50:34;;;;;;;10.55;4.72;;;18.90;99.90;;;;;;4977796;28;20054;-73
2022/06/11 04:53:00;;;;;;;6.43;4.30;;;18.90;99.90;;;;;;4980583;28;20514;-74
2022/06/11 04:55:27;;;;;;;8.55;5.22;;;18.90;99.90;;;;;;4982203;28;20056;-75
2022/06/11 04:57:55;;;;;;;6.55;4.50;;;18.80;99.90;;;;;;4983756;28;20102;-76
2022/06/11 05:00:28;;;;;;;5.97;4.13;;;18.90;99.90;;;;;;4980135;28;20054;-75
2022/06/11 05:02:54;;;;;;;7.40;4.90;;;18.90;99.90;;;;;;4979247;28;20041;-74
2022/06/11 05:05:21;;;;;;;6.53;3.47;;;19.00;99.90;;;;;;4980113;28;20073;-74
2022/06/11 05:07:48;;;;;;;6.60;4.15;;;19.10;99.90;;;;;;4977807;28;20495;-75
2022/06/11 05:10:19;;;;;;;5.68;4.25;;;19.10;99.90;;;;;;4983533;28;20586;-75
2022/06/11 05:12:45;;;;;;;6.22;4.30;;;19.20;99.90;;;;;;4982192;28;20517;-76
2022/06/11 05:15:13;;;;;;;8.25;5.38;;;19.10;99.90;;;;;;4982209;28;20042;-75
2022/06/11 05:17:40;;;;;;;7.28;4.85;;;19.10;99.90;;;;;;4980786;28;20039;-76
2022/06/11 05:20:08;;;;;;;8.05;4.68;;;19.20;99.90;;;;;;4983019;28;20402;-73
2022/06/11 05:22:34;;;;;;;5.88;4.47;;;19.20;99.90;;;;;;4980714;28;20686;-74
2022/06/11 05:25:00;;;;;;;7.57;5.03;;;19.30;99.90;;;;;;4985917;28;20034;-73
2022/06/11 05:27:27;;;;;;;5.18;3.97;;;19.30;99.90;;;;;;4980900;28;20026;-74
2022/06/11 05:29:57;;;;;;;6.20;4.43;;;19.30;99.90;;;;;;4981966;28;20034;-75
2022/06/11 05:32:26;;;;;;;6.22;4.47;;;19.40;99.90;;;;;;4976541;28;20022;-76
2022/06/11 05:34:52;;;;;;;6.03;4.60;;;19.40;99.90;;;;;;4981749;28;20023;-76
2022/06/11 05:37:19;;;;;;;8.70;5.20;;;19.50;99.90;;;;;;4978886;28;20081;-76
2022/06/11 05:39:46;;;;;;;11.00;5.90;;;19.60;99.90;;;;;;4963702;28;20039;-75
2022/06/11 05:42:12;;;;;;;6.75;5.15;;;19.70;99.90;;;;;;4984055;28;20053;-75
2022/06/11 05:44:38;;;;;;;5.93;4.40;;;19.80;99.90;;;;;;4981726;28;20026;-75
2022/06/11 05:47:06;;;;;;;10.73;5.35;;;19.80;99.90;;;;;;4980209;28;20040;-75
2022/06/11 05:49:37;;;;;;;10.07;5.00;;;19.80;99.90;;;;;;4983592;28;20179;-77
2022/06/11 05:52:09;;;;;;;7.70;5.40;;;19.80;99.90;;;;;;4966860;28;20039;-74
2022/06/11 05:54:39;;;;;;;9.43;5.75;;;19.80;99.90;;;;;;4982487;28;20045;-74
2022/06/11 05:57:07;;;;;;;7.22;5.63;;;19.80;99.90;;;;;;4976429;28;20033;-77
2022/06/11 05:59:38;;;;;;;8.55;5.68;;;19.90;99.90;;;;;;4978925;28;20035;-75
2022/06/11 06:02:08;;;;;;;;;;;20.00;99.90;;;;;;4975905;28;20683;-76
2022/06/11 06:04:35;;;;;;;11.65;6.25;;;20.10;99.90;;;;;;4968477;28;19918;-74
2022/06/11 06:07:00;;;;;;;7.47;5.07;;;20.00;99.90;;;;;;4979457;28;20077;-74
2022/06/11 06:09:26;;;;;;;9.13;5.90;;;20.00;99.90;;;;;;4977649;28;20026;-74
2022/06/11 06:11:51;;;;;;;8.95;6.18;;;20.00;99.90;;;;;;4981322;28;20025;-73
2022/06/11 06:14:17;;;;;;;9.68;6.50;;;20.00;99.90;;;;;;4987319;28;20039;-77
2022/06/11 06:16:44;;;;;;;15.63;7.85;;;19.90;99.90;;;;;;4972887;28;20066;-74
2022/06/11 06:19:10;;;;;;;12.82;7.93;;;19.90;99.90;;;;;;4981025;28;20054;-74
2022/06/11 06:21:37;;;;;;;9.52;7.65;;;19.90;99.90;;;;;;4979480;28;20037;-74
2022/06/11 06:24:04;;;;;;;11.23;7.60;;;20.00;99.90;;;;;;4972593;28;20048;-74
2022/06/11 06:26:30;;;;;;;9.18;7.00;;;20.00;99.90;;;;;;4978623;28;21979;-74
2022/06/11 06:28:57;;;;;;;10.43;8.02;;;20.00;99.90;;;;;;4978832;28;20078;-76
2022/06/11 06:31:23;;;;;;;9.70;6.95;;;20.10;99.90;;;;;;4977240;28;20104;-77
2022/06/11 06:33:51;;;;;;;9.70;6.90;;;20.20;99.90;;;;;;4987038;28;20029;-75
2022/06/11 06:36:17;;;;;;;11.35;7.25;;;20.30;99.90;;;;;;4987444;28;20402;-74
2022/06/11 06:38:44;;;;;;;12.60;8.00;;;20.40;99.90;;;;;;4987673;28;20041;-75
2022/06/11 06:41:11;;;;;;;15.25;9.90;;;20.50;99.90;;;;;;4989195;28;20040;-74
2022/06/11 06:43:38;;;;;;;14.55;8.68;;;20.70;99.90;;;;;;4983399;28;20031;-75
2022/06/11 06:46:04;;;;;;;12.00;8.95;;;20.90;99.90;;;;;;4977194;28;20117;-73
2022/06/11 06:48:30;;;;;;;12.10;8.88;;;21.00;99.90;;;;;;4984002;28;20109;-74
2022/06/11 06:50:56;;;;;;;11.98;7.45;;;21.00;99.90;;;;;;4990058;28;20046;-74
2022/06/11 06:53:23;;;;;;;12.55;7.38;;;21.00;99.90;;;;;;4979339;28;20022;-74
2022/06/11 06:55:48;;;;;;;11.63;8.82;;;21.10;99.90;;;;;;4986025;28;20513;-74
2022/06/11 06:58:15;;;;;;;10.07;7.68;;;21.10;99.90;;;;;;4983980;28;20039;-74
2022/06/11 07:00:46;;;;;;;11.90;7.40;;;21.10;99.90;;;;;;4968827;28;20096;-74
2022/06/11 07:03:13;;;;;;;10.45;6.78;;;21.20;99.90;;;;;;4999643;28;20030;-74
2022/06/11 07:05:40;;;;;;;15.85;8.15;;;21.20;99.90;;;;;;4982398;28;20066;-74
2022/06/11 07:08:06;;;;;;;12.32;6.88;;;21.30;99.90;;;;;;4966327;28;20192;-74
2022/06/11 07:10:33;;;;;;;9.15;6.43;;;21.30;99.90;;;;;;4984445;28;20027;-75
2022/06/11 07:13:00;;;;;;;11.07;6.75;;;21.40;99.90;;;;;;4980765;28;20030;-73
2022/06/11 07:15:27;;;;;;;12.43;7.18;;;21.30;99.90;;;;;;4984347;28;20525;-74
2022/06/11 07:18:00;;;;;;;9.90;5.82;;;21.30;99.90;;;;;;4981749;28;20051;-74
2022/06/11 07:20:28;;;;;;;8.48;5.28;;;21.10;99.90;;;;;;4987772;28;20219;-77
2022/06/11 07:23:07;;;;;;;10.50;5.70;;;21.00;99.90;;;;;;4962862;28;20041;-76
2022/06/11 07:25:33;;;;;;;10.93;5.65;;;21.00;99.90;;;;;;4988126;28;20065;-75
2022/06/11 07:28:03;;;;;;;10.75;5.40;;;21.20;99.90;;;;;;4985325;28;20037;-74
2022/06/11 07:30:32;;;;;;;12.02;6.18;;;21.20;99.90;;;;;;4980348;28;20037;-74
2022/06/11 07:33:05;;;;;;;7.70;4.85;;;21.20;99.90;;;;;;4984102;28;20037;-73
2022/06/11 07:35:32;;;;;;;12.55;5.63;;;21.00;99.90;;;;;;4975049;28;20077;-75
2022/06/11 07:37:57;;;;;;;10.90;6.13;;;20.90;99.90;;;;;;4980697;28;20443;-76
2022/06/11 07:40:24;;;;;;;14.00;5.85;;;20.70;99.90;;;;;;4976316;28;20039;-73
2022/06/11 07:42:50;;;;;;;10.02;5.45;;;20.50;99.90;;;;;;4971870;28;20042;-74
2022/06/11 07:45:16;;;;;;;8.38;5.72;;;20.60;99.90;;;;;;4976891;28;20037;-72
2022/06/11 07:47:54;;;;;;;12.38;5.50;;;20.70;99.90;;;;;;4978567;28;20042;-73
2022/06/11 07:50:40;;;;;;;11.30;6.00;;;20.70;99.90;;;;;;4986087;28;20072;-74
2022/06/11 07:53:07;;;;;;;11.05;5.82;;;20.80;99.90;;;;;;4986369;28;20069;-74
2022/06/11 07:55:34;;;;;;;8.18;5.13;;;21.00;99.90;;;;;;4968622;28;20758;-74
2022/06/11 07:58:00;;;;;;;8.98;4.90;;;21.20;99.90;;;;;;4976554;28;20039;-74
2022/06/11 08:00:36;;;;;;;13.60;6.88;;;21.40;99.90;;;;;;4981641;28;21709;-74
2022/06/11 08:03:02;;;;;;;10.32;5.80;;;21.50;99.90;;;;;;4980529;28;20034;-74
2022/06/11 08:05:28;;;;;;;9.48;5.60;;;21.50;99.90;;;;;;4983997;28;20532;-74
2022/06/11 08:07:54;;;;;;;7.68;5.82;;;21.50;99.90;;;;;;4976327;28;20026;-74
2022/06/11 08:10:23;;;;;;;11.02;5.75;;;21.50;99.90;;;;;;4979245;28;20390;-73
2022/06/11 08:12:49;;;;;;;8.38;5.47;;;21.60;99.90;;;;;;4975148;28;20030;-73
2022/06/11 08:15:15;;;;;;;9.43;5.93;;;21.60;99.90;;;;;;4978927;28;20043;-73
2022/06/11 08:17:41;;;;;;;15.00;6.97;;;21.80;99.90;;;;;;4975091;28;20044;-74
2022/06/11 08:20:08;;;;;;;6.25;5.00;;;21.90;99.90;;;;;;4978571;28;20034;-73
2022/06/11 08:22:34;;;;;;;11.02;5.70;;;22.00;99.90;;;;;;4979273;28;20045;-73
2022/06/11 08:25:00;;;;;;;7.22;5.57;;;22.00;99.90;;;;;;4981187;28;20034;-75
2022/06/11 08:27:26;;;;;;;9.77;6.10;;;21.80;99.90;;;;;;4975192;28;20027;-74
2022/06/11 08:29:53;;;;;;;7.93;4.88;;;21.70;99.90;;;;;;4981520;28;20032;-74
2022/06/11 08:32:18;;;;;;;7.65;4.97;;;21.60;99.90;;;;;;4973855;28;20564;-74
2022/06/11 08:34:46;;;;;;;7.70;5.10;;;21.60;99.90;;;;;;4982102;28;20086;-74
2022/06/11 08:37:13;;;;;;;6.78;5.38;;;21.60;99.90;;;;;;4965754;28;20116;-75
2022/06/11 08:39:40;;;;;;;8.35;5.75;;;21.70;99.90;;;;;;4983489;28;20380;-74
2022/06/11 08:42:09;;;;;;;7.93;4.90;;;21.80;99.90;;;;;;4981352;28;20280;-75
2022/06/11 08:44:37;;;;;;;6.25;4.65;;;22.00;99.90;;;;;;4977185;28;20057;-76
2022/06/11 08:47:11;;;;;;;6.93;4.43;;;22.10;99.90;;;;;;4981489;28;20080;-76
2022/06/11 08:49:46;;;;;;;7.80;4.53;;;22.00;99.90;;;;;;4983716;28;20165;-75
2022/06/11 08:52:23;;;;;;;6.05;3.97;;;21.70;99.90;;;;;;4974716;28;20112;-75
2022/06/11 08:54:49;;;;;;;5.15;3.20;;;21.60;99.90;;;;;;4974393;28;20099;-74
2022/06/11 08:57:23;;;;;;;5.22;3.08;;;21.70;99.90;;;;;;4983960;28;20030;-73
2022/06/11 08:59:55;;;;;;;5.07;2.53;;;21.80;99.90;;;;;;4981757;28;20037;-74
2022/06/11 09:02:45;;;;;;;3.83;2.30;;;21.90;99.90;;;;;;4984707;28;20583;-73
2022/06/11 09:05:46;;;;;;;7.65;3.00;;;21.90;99.90;;;;;;4976401;28;20039;-73
2022/06/11 09:08:23;;;;;;;3.78;2.20;;;22.10;99.50;;;;;;4949315;28;20087;-73
2022/06/11 09:11:16;;;;;;;5.65;3.10;;;22.20;99.20;;;;;;4975525;28;20033;-74
2022/06/11 09:14:11;;;;;;;4.90;3.03;;;22.40;98.20;;;;;;4984034;28;20022;-73
2022/06/11 09:17:08;;;;;;;10.02;5.30;;;22.30;98.00;;;;;;4980824;28;20026;-73
2022/06/11 09:20:03;;;;;;;4.70;3.80;;;22.30;98.40;;;;;;4988555;28;20030;-75
2022/06/11 09:22:52;;;;;;;6.75;4.30;;;22.30;99.30;;;;;;4987547;28;20194;-73
2022/06/11 09:25:30;;;;;;;5.82;4.35;;;22.30;99.40;;;;;;4985612;28;20034;-73
2022/06/11 09:28:51;;;;;;;8.38;4.07;;;22.20;98.30;;;;;;4973379;28;20084;-73
2022/06/11 09:31:42;;;;;;;10.52;6.03;;;22.50;97.80;;;;;;4970516;28;20045;-73
2022/06/11 09:34:20;;;;;;;5.20;3.10;;;22.70;97.00;;;;;;4970026;28;20038;-74
2022/06/11 09:37:05;;;;;;;4.82;2.67;;;22.70;96.00;;;;;;4970556;28;20042;-74
2022/06/11 09:39:56;;;;;;;5.60;2.95;;;22.60;95.90;;;;;;4972645;28;20096;-78
2022/06/11 09:42:44;;;;;;;5.20;2.92;;;22.70;96.20;;;;;;4987088;28;20430;-76
2022/06/11 09:45:35;;;;;;;5.22;2.92;;;22.90;95.60;;;;;;4963259;28;20030;-75
2022/06/11 09:48:06;;;;;;;3.85;2.28;;;23.00;95.00;;;;;;4980603;28;20569;-74
2022/06/11 09:50:43;;;;;;;4.47;2.20;;;22.90;93.50;;;;;;4978768;28;20058;-74
2022/06/11 09:53:21;;;;;;;5.88;2.28;;;22.80;92.70;;;;;;4984080;28;20033;-74
2022/06/11 09:56:05;;;;;;;4.78;2.42;;;22.70;91.40;;;;;;4981910;28;20026;-74
2022/06/11 09:59:07;;;;;;;3.05;2.00;;;22.70;92.30;;;;;;4973445;28;20032;-75
2022/06/11 10:02:19;;;;;;;5.43;2.30;;;22.80;91.50;;;;;;4989336;28;20029;-74
2022/06/11 10:04:53;;;;;;;6.53;2.47;;;22.80;90.40;;;;;;4956881;28;20033;-76
2022/06/11 10:07:38;;;;;;;3.15;2.10;;;22.90;90.90;;;;;;4975559;28;20030;-74
2022/06/11 10:10:12;;;;;;;5.93;2.28;;;22.90;90.80;;;;;;4987694;28;20066;-74
2022/06/11 10:12:51;;;;;;;5.10;1.88;;;22.90;91.10;;;;;;4990703;28;20410;-75
2022/06/11 10:15:27;;;;;;;5.38;1.88;;;22.90;90.90;;;;;;4985496;28;20030;-74
2022/06/11 10:18:04;;;;;;;3.53;1.95;;;23.00;90.90;;;;;;4985725;28;20088;-75
2022/06/11 10:20:37;;;;;;;3.75;1.70;;;23.10;90.70;;;;;;4989633;28;20088;-74
2022/06/11 10:23:29;;;;;;;4.95;1.92;;;23.10;87.50;;;;;;4988848;28;20113;-75
2022/06/11 10:26:11;;;;;;;3.20;1.80;;;23.10;88.50;;;;;;4982946;28;20042;-76
2022/06/11 10:29:13;;;;;;;6.50;2.00;;;23.10;86.10;;;;;;4988538;28;20021;-76
2022/06/11 10:31:52;;;;;;;5.10;2.15;;;23.00;85.80;;;;;;4985765;28;20026;-74
2022/06/11 10:34:28;;;;;;;8.50;2.28;;;23.00;86.90;;;;;;4969355;28;20043;-78
2022/06/11 10:37:21;;;;;;;3.97;2.30;;;23.20;83.30;;;;;;4987568;28;20027;-78
2022/06/11 10:39:56;;;;;;;5.18;2.28;;;23.10;85.30;;;;;;4986716;28;20504;-77
2022/06/11 10:42:33;;;;;;;8.35;2.45;;;23.00;87.10;;;;;;4972242;28;20043;-77
2022/06/11 10:45:00;;;;;;;6.13;2.58;;;23.00;86.30;;;;;;4978662;28;20030;-76
2022/06/11 10:47:28;;;;;;;7.75;2.88;;;23.10;85.20;;;;;;4977726;28;20510;-75
2022/06/11 10:50:09;;;;;;;8.95;3.33;;;23.10;85.40;;;;;;4983274;28;20026;-74
2022/06/11 10:52:40;;;;;;;6.78;2.85;;;23.20;84.40;;;;;;4996409;28;20037;-73
2022/06/11 10:55:15;;;;;;;8.27;2.53;;;23.10;82.90;;;;;;4971203;28;20098;-77
2022/06/11 10:57:43;;;;;;;7.32;2.75;;;23.20;85.60;;;;;;4976384;28;20467;-74
2022/06/11 11:00:28;;;;;;;8.20;3.25;;;23.40;86.50;;;;;;4985748;28;20518;-77
2022/06/11 11:03:12;;;;;;;7.20;2.50;;;23.60;85.30;;;;;;4978180;28;20500;-76
2022/06/11 11:05:49;;;;;;;8.77;2.75;;;23.70;85.20;;;;;;4970860;28;20038;-76
2022/06/11 11:08:16;;;;;;;7.28;2.55;;;23.80;85.60;;;;;;4986082;28;20038;-77
2022/06/11 11:10:54;;;;;;;8.27;2.70;;;23.90;84.90;;;;;;4980574;28;20023;-76
2022/06/11 11:13:39;;;;;;;10.45;2.85;;;24.00;84.00;;;;;;4968804;28;20059;-81
2022/06/11 11:16:17;;;;;;;6.05;2.58;;;24.30;83.20;;;;;;4979809;28;20429;-77
2022/06/11 11:19:04;;;;;;;10.25;2.90;;;24.40;82.60;;;;;;4959304;28;20023;-76
2022/06/11 11:21:35;;;;;;;9.60;2.53;;;25.30;81.60;;;;;;4958955;28;20041;-79
2022/06/11 11:24:23;;;;;;;8.32;2.80;;;26.60;76.60;;;;;;4977246;28;20035;-75
2022/06/11 11:26:56;;;;;;;7.82;2.65;;;28.80;69.00;;;;;;4965148;28;20506;-76
2022/06/11 11:29:28;;;;;;;9.68;3.22;;;28.80;61.70;;;;;;4971478;28;20033;-75
2022/06/11 11:32:06;;;;;;;10.00;3.05;;;28.40;59.30;;;;;;4975369;28;20030;-75
2022/06/11 11:34:48;;;;;;;10.20;2.95;;;28.90;59.80;;;;;;4986391;28;20038;-81
2022/06/11 11:37:13;;;;;;;8.90;2.85;;;31.20;56.80;;;;;;4986051;28;21914;-77
2022/06/11 11:39:52;;;;;;;6.43;2.75;;;33.20;53.00;;;;;;4987084;28;20042;-76
2022/06/11 11:42:34;;;;;;;7.57;3.05;;;34.60;47.30;;;;;;4985396;28;20049;-79
2022/06/11 11:45:20;;;;;;;10.57;2.90;;;35.00;45.60;;;;;;4984085;28;20542;-75
2022/06/11 11:47:47;;;;;;;8.50;3.15;;;35.70;45.60;;;;;;4985663;28;20478;-75
2022/06/11 11:50:13;;;;;;;7.38;3.05;;;36.70;45.60;;;;;;4971192;28;20069;-76
2022/06/11 11:52:55;;;;;;;9.25;3.28;;;37.40;43.70;;;;;;4978292;28;20101;-76
2022/06/11 11:55:31;;;;;;;7.43;2.90;;;38.10;41.40;;;;;;4968099;28;20026;-76
2022/06/11 11:58:17;;;;;;;10.05;3.50;;;37.90;41.30;;;;;;4971652;28;20068;-77
2022/06/11 12:00:54;;;;;;;7.28;2.80;;;37.70;39.60;;;;;;4979994;28;20408;-76
2022/06/11 12:03:30;;;;;;;9.13;3.15;;;37.30;40.50;;;;;;4978710;28;20085;-76
2022/06/11 12:05:58;;;;;;;6.82;2.50;;;37.00;38.60;;;;;;4965132;28;20031;-76
2022/06/11 12:08:36;;;;;;;5.88;2.28;;;36.10;40.00;;;;;;4973184;28;20077;-75
2022/06/11 12:11:04;;;;;;;6.55;2.80;;;35.90;40.40;;;;;;4981556;28;20117;-75
2022/06/11 12:13:39;;;;;;;8.13;2.47;;;35.70;40.80;;;;;;4970216;28;20088;-76
2022/06/11 12:16:06;;;;;;;10.27;2.80;;;35.70;41.10;;;;;;4971634;28;20165;-75
2022/06/11 12:19:01;;;;;;;7.93;2.75;;;35.60;40.80;;;;;;4975743;28;20105;-76
2022/06/11 12:21:34;;;;;;;6.65;2.83;;;35.40;41.70;;;;;;4963668;28;20042;-75
2022/06/11 12:24:01;;;;;;;5.95;2.78;;;34.90;41.90;;;;;;4973299;28;20189;-75
2022/06/11 12:26:46;;;;;;;9.43;3.70;;;35.10;42.20;;;;;;4971961;28;20678;-74
2022/06/11 12:29:36;;;;;;;9.15;2.88;;;36.00;40.30;;;;;;4979833;28;20500;-74
2022/06/11 12:32:14;;;;;;;6.07;2.42;;;36.50;40.20;;;;;;4975868;28;20032;-74
2022/06/11 12:34:40;;;;;;;10.18;3.00;;;37.00;39.50;;;;;;4972093;28;20405;-75
2022/06/11 12:37:37;;;;;;;8.57;2.50;;;37.50;39.10;;;;;;4968928;28;20034;-74
2022/06/11 12:40:28;;;;;;;13.15;3.28;;;37.40;40.00;;;;;;4990038;28;20030;-75
2022/06/11 12:43:24;;;;;;;6.07;2.65;;;35.70;40.00;;;;;;4963427;28;20026;-71
2022/06/11 12:46:21;;;;;;;9.57;2.88;;;33.90;42.60;;;;;;4975364;28;20406;-76
2022/06/11 12:49:10;;;;;;;70.57;61.55;;;34.10;42.10;;;;;;4969596;28;20018;-75
2022/06/11 12:51:35;;;;;;;90.50;71.55;;;34.70;42.20;;;;;;4966331;28;20031;-76
2022/06/11 12:54:18;;;;;;;12.73;5.75;;;33.70;41.90;;;;;;4988536;28;20081;-77
2022/06/11 12:57:15;;;;;;;10.52;3.25;;;33.10;43.60;;;;;;4981887;28;20026;-73
2022/06/11 13:00:02;;;;;;;8.50;2.97;;;33.60;42.90;;;;;;4970361;28;20045;-76
2022/06/11 13:02:36;;;;;;;7.47;3.10;;;34.80;41.30;;;;;;4980787;28;20354;-76
2022/06/11 13:05:32;;;;;;;7.85;3.05;;;35.70;39.90;;;;;;4968600;28;20039;-77
2022/06/11 13:08:45;;;;;;;10.07;2.88;;;36.60;39.30;;;;;;4983004;28;20045;-78
2022/06/11 13:11:25;;;;;;;6.55;2.80;;;37.30;39.20;;;;;;4990947;28;20039;-78
2022/06/11 13:14:15;;;;;;;10.63;3.75;;;37.90;39.10;;;;;;4988494;28;20045;-77
2022/06/11 13:16:52;;;;;;;8.43;3.65;;;37.90;37.80;;;;;;4989258;28;20121;-78
2022/06/11 13:19:21;;;;;;;11.68;3.45;;;36.80;38.00;;;;;;4988737;28;20026;-77
2022/06/11 13:22:09;;;;;;;7.85;3.22;;;37.10;38.30;;;;;;4990131;28;20030;-78